sensor_id;sensor_type;location;lat;lon;timestamp;temperature;humidity
10644;DHT22;5370;50.132;8.626;2022-12-31T00:01:07;13.60;99.90
10644;DHT22;5370;50.132;8.626;2022-12-31T00:03:34;13.60;99.90
10644;DHT22;5370;50.132;8.626;2022-12-31T00:06:00;13.60;99.90
10644;DHT22;5370;50.132;8.626;2022-12-31T00:08:26;13.60;99.90
10644;DHT22;5370;50.132;8.626;2022-12-31T00:10:51;13.60;99.90
10644;DHT22;5370;50.132;8.626;2022-12-31T00:13:17;13.70;99.90
10644;DHT22;5370;50.132;8.626;2022-12-31T00:15:43;13.70;99.90
10644;DHT22;5370;50.132;8.626;2022-12-31T00:18:09;13.70;99.90
10644;DHT22;5370;50.132;8.626;2022-12-31T00:20:38;13.70;99.90
10644;DHT22;5370;50.132;8.626;2022-12-31T00:23:05;13.80;99.90
10644;DHT22;5370;50.132;8.626;2022-12-31T00:25:30;13.80;99.90
10644;DHT22;5370;50.132;8.626;2022-12-31T00:27:58;13.80;99.90
10644;DHT22;5370;50.132;8.626;2022-12-31T00:30:23;13.80;99.90
10644;DHT22;5370;50.132;8.626;2022-12-31T00:32:49;13.80;99.90
10644;DHT22;5370;50.132;8.626;2022-12-31T00:35:14;13.90;99.90
10644;DHT22;5370;50.132;8.626;2022-12-31T00:37:40;13.90;99.90
10644;DHT22;5370;50.132;8.626;2022-12-31T00:40:06;13.90;99.90
10644;DHT22;5370;50.132;8.626;2022-12-31T00:42:32;13.90;99.90
10644;DHT22;5370;50.132;8.626;2022-12-31T00:44:57;14.00;99.90
10644;DHT22;5370;50.132;8.626;2022-12-31T00:47:23;14.00;99.90
10644;DHT22;5370;50.132;8.626;2022-12-31T00:49:48;14.00;99.90
10644;DHT22;5370;50.132;8.626;2022-12-31T00:52:14;14.00;99.90
10644;DHT22;5370;50.132;8.626;2022-12-31T00:54:41;14.00;99.90
10644;DHT22;5370;50.132;8.626;2022-12-31T00:57:06;14.00;99.90
10644;DHT22;5370;50.132;8.626;2022-12-31T00:59:32;14.00;99.90
10644;DHT22;5370;50.132;8.626;2022-12-31T01:01:57;14.00;99.90
10644;DHT22;5370;50.132;8.626;2022-12-31T01:04:23;14.10;99.90
10644;DHT22;5370;50.132;8.626;2022-12-31T01:06:48;14.10;99.90
10644;DHT22;5370;50.132;8.626;2022-12-31T01:09:14;14.10;99.90
10644;DHT22;5370;50.132;8.626;2022-12-31T01:11:40;14.10;99.90
10644;DHT22;5370;50.132;8.626;2022-12-31T01:14:15;14.10;99.90
10644;DHT22;5370;50.132;8.626;2022-12-31T01:16:49;14.20;99.90
10644;DHT22;5370;50.132;8.626;2022-12-31T01:19:27;14.20;99.90
10644;DHT22;5370;50.132;8.626;2022-12-31T01:21:53;14.20;99.90
10644;DHT22;5370;50.132;8.626;2022-12-31T01:24:19;14.20;99.90
10644;DHT22;5370;50.132;8.626;2022-12-31T01:26:45;14.30;99.90
10644;DHT22;5370;50.132;8.626;2022-12-31T01:29:12;14.30;99.90
10644;DHT22;5370;50.132;8.626;2022-12-31T01:31:38;14.30;99.90
10644;DHT22;5370;50.132;8.626;2022-12-31T01:34:05;14.30;99.90
10644;DHT22;5370;50.132;8.626;2022-12-31T01:36:32;14.30;99.90
10644;DHT22;5370;50.132;8.626;2022-12-31T01:38:59;14.30;99.90
10644;DHT22;5370;50.132;8.626;2022-12-31T01:41:28;14.30;99.90
10644;DHT22;5370;50.132;8.626;2022-12-31T01:46:43;14.40;99.90
10644;DHT22;5370;50.132;8.626;2022-12-31T01:49:35;14.40;99.90
10644;DHT22;5370;50.132;8.626;2022-12-31T01:52:11;14.40;99.90
10644;DHT22;5370;50.132;8.626;2022-12-31T01:54:41;14.40;99.90
10644;DHT22;5370;50.132;8.626;2022-12-31T01:57:09;14.40;99.90
10644;DHT22;5370;50.132;8.626;2022-12-31T01:59:35;14.40;99.90
10644;DHT22;5370;50.132;8.626;2022-12-31T02:02:01;14.50;99.90
10644;DHT22;5370;50.132;8.626;2022-12-31T02:04:27;14.50;99.90
10644;DHT22;5370;50.132;8.626;2022-12-31T02:07:06;14.50;99.90
10644;DHT22;5370;50.132;8.626;2022-12-31T02:09:33;14.50;99.90
10644;DHT22;5370;50.132;8.626;2022-12-31T02:12:00;14.50;99.90
10644;DHT22;5370;50.132;8.626;2022-12-31T02:14:28;14.50;99.90
10644;DHT22;5370;50.132;8.626;2022-12-31T02:30:00;14.60;99.90
10644;DHT22;5370;50.132;8.626;2022-12-31T02:32:35;14.60;99.90
10644;DHT22;5370;50.132;8.626;2022-12-31T02:35:09;14.60;99.90
10644;DHT22;5370;50.132;8.626;2022-12-31T02:37:38;14.70;99.90
10644;DHT22;5370;50.132;8.626;2022-12-31T02:40:08;14.70;99.90
10644;DHT22;5370;50.132;8.626;2022-12-31T02:42:35;14.70;99.90
10644;DHT22;5370;50.132;8.626;2022-12-31T02:45:00;14.80;99.90
10644;DHT22;5370;50.132;8.626;2022-12-31T02:50:34;14.90;99.60
10644;DHT22;5370;50.132;8.626;2022-12-31T02:53:19;14.90;99.30
10644;DHT22;5370;50.132;8.626;2022-12-31T03:01:32;15.00;98.70
10644;DHT22;5370;50.132;8.626;2022-12-31T03:04:18;15.00;98.40
10644;DHT22;5370;50.132;8.626;2022-12-31T03:07:08;15.00;98.10
10644;DHT22;5370;50.132;8.626;2022-12-31T03:09:35;15.00;97.90
10644;DHT22;5370;50.132;8.626;2022-12-31T03:12:02;15.00;97.70
10644;DHT22;5370;50.132;8.626;2022-12-31T03:14:47;15.10;97.50
10644;DHT22;5370;50.132;8.626;2022-12-31T03:17:12;15.00;97.20
10644;DHT22;5370;50.132;8.626;2022-12-31T03:19:38;15.00;97.10
10644;DHT22;5370;50.132;8.626;2022-12-31T03:22:22;15.00;97.20
10644;DHT22;5370;50.132;8.626;2022-12-31T03:25:06;15.10;97.20
10644;DHT22;5370;50.132;8.626;2022-12-31T03:27:51;15.10;97.10
10644;DHT22;5370;50.132;8.626;2022-12-31T03:30:18;15.00;97.00
10644;DHT22;5370;50.132;8.626;2022-12-31T03:32:45;15.10;96.90
10644;DHT22;5370;50.132;8.626;2022-12-31T03:35:12;15.10;96.90
10644;DHT22;5370;50.132;8.626;2022-12-31T03:37:39;15.10;96.70
10644;DHT22;5370;50.132;8.626;2022-12-31T03:40:07;15.10;96.50
10644;DHT22;5370;50.132;8.626;2022-12-31T03:42:33;15.20;96.40
10644;DHT22;5370;50.132;8.626;2022-12-31T03:44:59;15.20;96.30
10644;DHT22;5370;50.132;8.626;2022-12-31T03:47:25;15.20;96.20
10644;DHT22;5370;50.132;8.626;2022-12-31T03:49:50;15.20;96.10
10644;DHT22;5370;50.132;8.626;2022-12-31T03:52:16;15.20;95.90
10644;DHT22;5370;50.132;8.626;2022-12-31T03:54:42;15.20;95.90
10644;DHT22;5370;50.132;8.626;2022-12-31T03:57:07;15.30;95.80
10644;DHT22;5370;50.132;8.626;2022-12-31T03:59:33;15.20;95.70
10644;DHT22;5370;50.132;8.626;2022-12-31T04:01:58;15.30;95.70
10644;DHT22;5370;50.132;8.626;2022-12-31T04:04:24;15.30;95.60
10644;DHT22;5370;50.132;8.626;2022-12-31T04:06:49;15.30;95.50
10644;DHT22;5370;50.132;8.626;2022-12-31T04:09:15;15.30;95.50
10644;DHT22;5370;50.132;8.626;2022-12-31T04:11:40;15.30;95.50
10644;DHT22;5370;50.132;8.626;2022-12-31T04:14:06;15.30;95.50
10644;DHT22;5370;50.132;8.626;2022-12-31T04:16:31;15.30;95.40
10644;DHT22;5370;50.132;8.626;2022-12-31T04:18:57;15.30;95.40
10644;DHT22;5370;50.132;8.626;2022-12-31T04:21:23;15.30;95.40
10644;DHT22;5370;50.132;8.626;2022-12-31T04:23:48;15.30;95.40
10644;DHT22;5370;50.132;8.626;2022-12-31T04:26:14;15.30;95.50
10644;DHT22;5370;50.132;8.626;2022-12-31T04:28:40;15.30;95.50
10644;DHT22;5370;50.132;8.626;2022-12-31T04:31:05;15.30;95.50
10644;DHT22;5370;50.132;8.626;2022-12-31T04:33:31;15.30;95.50
10644;DHT22;5370;50.132;8.626;2022-12-31T04:36:04;15.30;95.60
10644;DHT22;5370;50.132;8.626;2022-12-31T04:38:30;15.30;95.60
10644;DHT22;5370;50.132;8.626;2022-12-31T04:40:56;15.30;95.60
10644;DHT22;5370;50.132;8.626;2022-12-31T04:43:41;15.30;95.60
10644;DHT22;5370;50.132;8.626;2022-12-31T04:46:06;15.40;95.60
10644;DHT22;5370;50.132;8.626;2022-12-31T04:48:33;15.30;95.60
10644;DHT22;5370;50.132;8.626;2022-12-31T04:50:58;15.40;95.50
10644;DHT22;5370;50.132;8.626;2022-12-31T04:53:24;15.40;95.50
10644;DHT22;5370;50.132;8.626;2022-12-31T04:55:50;15.40;95.40
10644;DHT22;5370;50.132;8.626;2022-12-31T04:58:16;15.40;95.40
10644;DHT22;5370;50.132;8.626;2022-12-31T05:00:41;15.50;95.30
10644;DHT22;5370;50.132;8.626;2022-12-31T05:03:07;15.40;95.20
10644;DHT22;5370;50.132;8.626;2022-12-31T05:05:36;15.50;95.10
10644;DHT22;5370;50.132;8.626;2022-12-31T05:08:02;15.50;95.10
10644;DHT22;5370;50.132;8.626;2022-12-31T05:10:28;15.50;95.00
10644;DHT22;5370;50.132;8.626;2022-12-31T05:12:53;15.50;95.10
10644;DHT22;5370;50.132;8.626;2022-12-31T05:15:19;15.50;94.80
10644;DHT22;5370;50.132;8.626;2022-12-31T05:17:44;15.50;94.60
10644;DHT22;5370;50.132;8.626;2022-12-31T05:20:10;15.60;94.60
10644;DHT22;5370;50.132;8.626;2022-12-31T05:22:35;15.60;94.50
10644;DHT22;5370;50.132;8.626;2022-12-31T05:25:01;15.60;94.50
10644;DHT22;5370;50.132;8.626;2022-12-31T05:27:27;15.60;94.40
10644;DHT22;5370;50.132;8.626;2022-12-31T05:29:55;15.60;94.40
10644;DHT22;5370;50.132;8.626;2022-12-31T05:32:20;15.70;94.40
10644;DHT22;5370;50.132;8.626;2022-12-31T05:34:46;15.60;94.30
10644;DHT22;5370;50.132;8.626;2022-12-31T05:37:11;15.60;94.30
10644;DHT22;5370;50.132;8.626;2022-12-31T05:39:37;15.70;94.30
10644;DHT22;5370;50.132;8.626;2022-12-31T05:42:03;15.60;94.30
10644;DHT22;5370;50.132;8.626;2022-12-31T05:44:28;15.70;94.30
10644;DHT22;5370;50.132;8.626;2022-12-31T05:46:54;15.70;94.30
10644;DHT22;5370;50.132;8.626;2022-12-31T05:49:20;15.70;94.20
10644;DHT22;5370;50.132;8.626;2022-12-31T05:51:45;15.70;94.20
10644;DHT22;5370;50.132;8.626;2022-12-31T05:54:11;15.70;94.10
10644;DHT22;5370;50.132;8.626;2022-12-31T05:56:36;15.80;94.10
10644;DHT22;5370;50.132;8.626;2022-12-31T05:59:02;15.80;94.10
10644;DHT22;5370;50.132;8.626;2022-12-31T06:01:27;15.80;94.10
10644;DHT22;5370;50.132;8.626;2022-12-31T06:03:53;15.80;94.00
10644;DHT22;5370;50.132;8.626;2022-12-31T06:06:18;15.80;94.00
10644;DHT22;5370;50.132;8.626;2022-12-31T06:08:48;15.80;93.90
10644;DHT22;5370;50.132;8.626;2022-12-31T06:11:14;15.80;93.90
10644;DHT22;5370;50.132;8.626;2022-12-31T06:13:39;15.80;93.80
10644;DHT22;5370;50.132;8.626;2022-12-31T06:16:06;15.80;93.80
10644;DHT22;5370;50.132;8.626;2022-12-31T06:18:31;15.80;93.80
10644;DHT22;5370;50.132;8.626;2022-12-31T06:20:57;15.90;93.80
10644;DHT22;5370;50.132;8.626;2022-12-31T06:23:23;15.90;94.00
10644;DHT22;5370;50.132;8.626;2022-12-31T06:25:48;15.90;93.60
10644;DHT22;5370;50.132;8.626;2022-12-31T06:28:14;15.90;93.60
10644;DHT22;5370;50.132;8.626;2022-12-31T06:30:40;15.90;93.50
10644;DHT22;5370;50.132;8.626;2022-12-31T06:33:05;16.00;93.50
10644;DHT22;5370;50.132;8.626;2022-12-31T06:35:31;16.00;93.40
10644;DHT22;5370;50.132;8.626;2022-12-31T06:37:56;16.00;93.30
10644;DHT22;5370;50.132;8.626;2022-12-31T06:40:22;16.00;93.30
10644;DHT22;5370;50.132;8.626;2022-12-31T06:42:47;16.00;93.20
10644;DHT22;5370;50.132;8.626;2022-12-31T06:45:13;16.00;93.10
10644;DHT22;5370;50.132;8.626;2022-12-31T06:47:38;16.00;93.10
10644;DHT22;5370;50.132;8.626;2022-12-31T06:50:04;16.00;93.00
10644;DHT22;5370;50.132;8.626;2022-12-31T06:52:31;16.00;92.90
10644;DHT22;5370;50.132;8.626;2022-12-31T06:54:57;16.00;92.80
10644;DHT22;5370;50.132;8.626;2022-12-31T06:57:23;16.00;92.80
10644;DHT22;5370;50.132;8.626;2022-12-31T06:59:49;16.10;92.80
10644;DHT22;5370;50.132;8.626;2022-12-31T07:04:57;16.00;92.60
10644;DHT22;5370;50.132;8.626;2022-12-31T07:07:48;16.10;92.60
10644;DHT22;5370;50.132;8.626;2022-12-31T07:10:48;16.10;92.60
10644;DHT22;5370;50.132;8.626;2022-12-31T07:18:44;16.10;92.50
10644;DHT22;5370;50.132;8.626;2022-12-31T07:21:13;16.10;92.40
10644;DHT22;5370;50.132;8.626;2022-12-31T07:23:41;16.10;92.40
10644;DHT22;5370;50.132;8.626;2022-12-31T07:37:50;16.10;92.20
10644;DHT22;5370;50.132;8.626;2022-12-31T07:40:34;16.10;92.20
10644;DHT22;5370;50.132;8.626;2022-12-31T07:45:55;16.10;92.10
10644;DHT22;5370;50.132;8.626;2022-12-31T07:48:25;16.10;92.40
10644;DHT22;5370;50.132;8.626;2022-12-31T07:50:52;16.10;92.00
10644;DHT22;5370;50.132;8.626;2022-12-31T07:53:20;16.10;92.00
10644;DHT22;5370;50.132;8.626;2022-12-31T07:55:45;16.10;92.00
10644;DHT22;5370;50.132;8.626;2022-12-31T07:58:19;16.20;91.90
10644;DHT22;5370;50.132;8.626;2022-12-31T08:00:47;16.20;91.90
10644;DHT22;5370;50.132;8.626;2022-12-31T08:03:39;16.20;91.70
10644;DHT22;5370;50.132;8.626;2022-12-31T08:09:07;16.20;91.60
10644;DHT22;5370;50.132;8.626;2022-12-31T08:11:59;16.30;91.50
10644;DHT22;5370;50.132;8.626;2022-12-31T08:14:26;16.30;91.30
10644;DHT22;5370;50.132;8.626;2022-12-31T08:16:53;16.20;91.00
10644;DHT22;5370;50.132;8.626;2022-12-31T08:19:25;16.30;91.00
10644;DHT22;5370;50.132;8.626;2022-12-31T08:27:07;16.30;90.70
10644;DHT22;5370;50.132;8.626;2022-12-31T08:30:06;16.30;90.60
10644;DHT22;5370;50.132;8.626;2022-12-31T08:32:45;16.30;90.50
10644;DHT22;5370;50.132;8.626;2022-12-31T08:35:35;16.30;90.40
10644;DHT22;5370;50.132;8.626;2022-12-31T08:41:15;16.30;90.50
10644;DHT22;5370;50.132;8.626;2022-12-31T08:43:47;16.30;90.20
10644;DHT22;5370;50.132;8.626;2022-12-31T08:46:20;16.30;90.10
10644;DHT22;5370;50.132;8.626;2022-12-31T08:48:47;16.20;90.00
10644;DHT22;5370;50.132;8.626;2022-12-31T08:51:18;16.20;90.00
10644;DHT22;5370;50.132;8.626;2022-12-31T08:53:44;16.20;89.90
10644;DHT22;5370;50.132;8.626;2022-12-31T08:58:57;16.20;89.80
10644;DHT22;5370;50.132;8.626;2022-12-31T09:01:27;16.20;89.80
10644;DHT22;5370;50.132;8.626;2022-12-31T09:04:26;16.20;89.60
10644;DHT22;5370;50.132;8.626;2022-12-31T09:07:01;16.20;89.40
10644;DHT22;5370;50.132;8.626;2022-12-31T09:09:49;16.20;89.20
10644;DHT22;5370;50.132;8.626;2022-12-31T09:12:34;16.20;89.00
10644;DHT22;5370;50.132;8.626;2022-12-31T09:15:13;16.30;88.80
10644;DHT22;5370;50.132;8.626;2022-12-31T09:20:32;16.30;88.50
10644;DHT22;5370;50.132;8.626;2022-12-31T09:23:01;16.40;88.50
10644;DHT22;5370;50.132;8.626;2022-12-31T09:25:27;16.40;88.10
10644;DHT22;5370;50.132;8.626;2022-12-31T09:30:21;16.40;87.70
10644;DHT22;5370;50.132;8.626;2022-12-31T09:33:09;16.40;87.40
10644;DHT22;5370;50.132;8.626;2022-12-31T09:35:42;16.50;87.30
10644;DHT22;5370;50.132;8.626;2022-12-31T09:52:24;16.80;85.50
10644;DHT22;5370;50.132;8.626;2022-12-31T09:55:30;16.80;85.40
10644;DHT22;5370;50.132;8.626;2022-12-31T10:09:53;17.20;83.40
10644;DHT22;5370;50.132;8.626;2022-12-31T10:15:33;17.30;82.60
10644;DHT22;5370;50.132;8.626;2022-12-31T10:18:22;17.30;82.10
10644;DHT22;5370;50.132;8.626;2022-12-31T10:21:10;17.30;81.40
10644;DHT22;5370;50.132;8.626;2022-12-31T10:27:00;17.40;81.40
10644;DHT22;5370;50.132;8.626;2022-12-31T10:29:51;17.40;81.20
10644;DHT22;5370;50.132;8.626;2022-12-31T10:32:42;17.50;80.90
10644;DHT22;5370;50.132;8.626;2022-12-31T10:41:25;17.60;79.20
10644;DHT22;5370;50.132;8.626;2022-12-31T10:54:55;17.70;78.10
10644;DHT22;5370;50.132;8.626;2022-12-31T11:00:38;17.80;77.70
10644;DHT22;5370;50.132;8.626;2022-12-31T11:11:44;17.90;76.40
10644;DHT22;5370;50.132;8.626;2022-12-31T11:17:33;17.90;76.00
10644;DHT22;5370;50.132;8.626;2022-12-31T11:23:03;17.90;75.40
10644;DHT22;5370;50.132;8.626;2022-12-31T11:33:55;17.90;75.30
10644;DHT22;5370;50.132;8.626;2022-12-31T11:44:54;18.00;74.70
10644;DHT22;5370;50.132;8.626;2022-12-31T11:50:31;18.10;74.40
10644;DHT22;5370;50.132;8.626;2022-12-31T11:53:27;18.10;74.00
10644;DHT22;5370;50.132;8.626;2022-12-31T11:56:22;18.20;73.90
10644;DHT22;5370;50.132;8.626;2022-12-31T11:58:51;18.30;73.60
10644;DHT22;5370;50.132;8.626;2022-12-31T12:01:29;18.30;72.90
10644;DHT22;5370;50.132;8.626;2022-12-31T12:03:56;18.30;72.50
10644;DHT22;5370;50.132;8.626;2022-12-31T12:06:28;18.40;72.50
10644;DHT22;5370;50.132;8.626;2022-12-31T12:09:02;18.40;72.40
10644;DHT22;5370;50.132;8.626;2022-12-31T12:11:34;18.50;72.10
10644;DHT22;5370;50.132;8.626;2022-12-31T12:14:20;18.50;71.60
10644;DHT22;5370;50.132;8.626;2022-12-31T12:16:46;18.50;71.30
10644;DHT22;5370;50.132;8.626;2022-12-31T12:19:17;18.60;71.00
10644;DHT22;5370;50.132;8.626;2022-12-31T12:21:47;18.60;70.50
10644;DHT22;5370;50.132;8.626;2022-12-31T12:24:33;18.70;70.30
10644;DHT22;5370;50.132;8.626;2022-12-31T12:26:59;18.70;70.10
10644;DHT22;5370;50.132;8.626;2022-12-31T12:29:30;18.80;69.80
10644;DHT22;5370;50.132;8.626;2022-12-31T12:32:04;18.70;69.40
10644;DHT22;5370;50.132;8.626;2022-12-31T12:34:35;18.80;69.50
10644;DHT22;5370;50.132;8.626;2022-12-31T12:37:01;18.90;69.50
10644;DHT22;5370;50.132;8.626;2022-12-31T12:39:30;18.90;69.20
10644;DHT22;5370;50.132;8.626;2022-12-31T12:42:12;18.90;69.00
10644;DHT22;5370;50.132;8.626;2022-12-31T12:44:39;18.90;68.60
10644;DHT22;5370;50.132;8.626;2022-12-31T12:47:12;18.80;68.30
10644;DHT22;5370;50.132;8.626;2022-12-31T12:49:41;18.80;68.30
10644;DHT22;5370;50.132;8.626;2022-12-31T12:55:02;18.90;68.00
10644;DHT22;5370;50.132;8.626;2022-12-31T12:58:01;18.80;67.50
10644;DHT22;5370;50.132;8.626;2022-12-31T13:00:57;18.80;67.40
10644;DHT22;5370;50.132;8.626;2022-12-31T13:04:04;18.70;67.30
10644;DHT22;5370;50.132;8.626;2022-12-31T13:14:50;18.50;67.60
10644;DHT22;5370;50.132;8.626;2022-12-31T13:22:54;18.40;67.90
10644;DHT22;5370;50.132;8.626;2022-12-31T13:28:25;18.30;67.70
10644;DHT22;5370;50.132;8.626;2022-12-31T13:31:00;18.30;67.90
10644;DHT22;5370;50.132;8.626;2022-12-31T13:33:41;18.30;67.70
10644;DHT22;5370;50.132;8.626;2022-12-31T13:36:12;18.20;67.50
10644;DHT22;5370;50.132;8.626;2022-12-31T13:38:43;18.20;67.60
10644;DHT22;5370;50.132;8.626;2022-12-31T13:41:26;18.20;67.80
10644;DHT22;5370;50.132;8.626;2022-12-31T13:44:02;18.20;67.90
10644;DHT22;5370;50.132;8.626;2022-12-31T13:56:04;18.10;67.10
10644;DHT22;5370;50.132;8.626;2022-12-31T13:58:36;18.10;67.10
10644;DHT22;5370;50.132;8.626;2022-12-31T14:04:00;18.10;66.90
10644;DHT22;5370;50.132;8.626;2022-12-31T14:09:01;18.00;66.90
10644;DHT22;5370;50.132;8.626;2022-12-31T14:16:57;17.80;66.80
10644;DHT22;5370;50.132;8.626;2022-12-31T14:19:59;17.80;66.80
10644;DHT22;5370;50.132;8.626;2022-12-31T14:22:55;17.70;66.60
10644;DHT22;5370;50.132;8.626;2022-12-31T14:25:32;17.70;66.80
10644;DHT22;5370;50.132;8.626;2022-12-31T14:28:00;17.60;66.80
10644;DHT22;5370;50.132;8.626;2022-12-31T14:30:35;17.50;66.70
10644;DHT22;5370;50.132;8.626;2022-12-31T14:33:17;17.50;66.90
10644;DHT22;5370;50.132;8.626;2022-12-31T14:39:00;17.40;66.90
10644;DHT22;5370;50.132;8.626;2022-12-31T14:42:09;17.30;67.00
10644;DHT22;5370;50.132;8.626;2022-12-31T14:45:00;17.30;67.20
10644;DHT22;5370;50.132;8.626;2022-12-31T14:47:49;17.20;67.30
10644;DHT22;5370;50.132;8.626;2022-12-31T14:50:26;17.20;67.50
10644;DHT22;5370;50.132;8.626;2022-12-31T14:55:27;17.00;67.60
10644;DHT22;5370;50.132;8.626;2022-12-31T14:57:55;17.00;67.80
10644;DHT22;5370;50.132;8.626;2022-12-31T15:03:02;16.90;68.00
10644;DHT22;5370;50.132;8.626;2022-12-31T15:05:31;16.80;68.20
10644;DHT22;5370;50.132;8.626;2022-12-31T15:11:03;16.70;68.50
10644;DHT22;5370;50.132;8.626;2022-12-31T15:24:57;16.50;68.90
10644;DHT22;5370;50.132;8.626;2022-12-31T15:27:35;16.40;68.90
10644;DHT22;5370;50.132;8.626;2022-12-31T15:30:04;16.40;69.00
10644;DHT22;5370;50.132;8.626;2022-12-31T15:32:36;16.30;68.90
10644;DHT22;5370;50.132;8.626;2022-12-31T15:35:25;16.30;68.90
10644;DHT22;5370;50.132;8.626;2022-12-31T15:38:33;16.30;69.00
10644;DHT22;5370;50.132;8.626;2022-12-31T15:41:00;16.30;69.00
10644;DHT22;5370;50.132;8.626;2022-12-31T15:43:44;16.20;69.00
10644;DHT22;5370;50.132;8.626;2022-12-31T15:46:16;16.20;69.10
10644;DHT22;5370;50.132;8.626;2022-12-31T15:48:52;16.10;69.10
10644;DHT22;5370;50.132;8.626;2022-12-31T15:51:28;16.10;69.20
10644;DHT22;5370;50.132;8.626;2022-12-31T15:53:57;16.10;69.20
10644;DHT22;5370;50.132;8.626;2022-12-31T15:56:35;16.10;69.20
10644;DHT22;5370;50.132;8.626;2022-12-31T15:59:04;16.10;69.30
10644;DHT22;5370;50.132;8.626;2022-12-31T16:01:35;16.00;69.30
10644;DHT22;5370;50.132;8.626;2022-12-31T16:04:17;16.00;69.50
10644;DHT22;5370;50.132;8.626;2022-12-31T16:06:44;15.90;69.50
10644;DHT22;5370;50.132;8.626;2022-12-31T16:09:30;15.90;69.70
10644;DHT22;5370;50.132;8.626;2022-12-31T16:11:59;15.80;69.90
10644;DHT22;5370;50.132;8.626;2022-12-31T16:14:32;15.70;70.00
10644;DHT22;5370;50.132;8.626;2022-12-31T16:16:59;15.70;70.50
10644;DHT22;5370;50.132;8.626;2022-12-31T16:19:44;15.70;70.70
10644;DHT22;5370;50.132;8.626;2022-12-31T16:22:22;15.80;71.30
10644;DHT22;5370;50.132;8.626;2022-12-31T16:24:53;15.80;71.10
10644;DHT22;5370;50.132;8.626;2022-12-31T16:27:21;15.80;70.90
10644;DHT22;5370;50.132;8.626;2022-12-31T16:29:58;15.80;70.90
10644;DHT22;5370;50.132;8.626;2022-12-31T16:32:23;15.80;70.90
10644;DHT22;5370;50.132;8.626;2022-12-31T16:34:49;15.80;70.80
10644;DHT22;5370;50.132;8.626;2022-12-31T16:37:20;15.80;70.70
10644;DHT22;5370;50.132;8.626;2022-12-31T16:40:07;15.80;70.70
10644;DHT22;5370;50.132;8.626;2022-12-31T16:42:37;15.80;70.60
10644;DHT22;5370;50.132;8.626;2022-12-31T16:45:23;15.80;70.40
10644;DHT22;5370;50.132;8.626;2022-12-31T16:47:53;15.80;70.30
10644;DHT22;5370;50.132;8.626;2022-12-31T16:50:22;15.80;70.20
10644;DHT22;5370;50.132;8.626;2022-12-31T16:52:49;15.80;70.00
10644;DHT22;5370;50.132;8.626;2022-12-31T16:55:24;15.70;69.90
10644;DHT22;5370;50.132;8.626;2022-12-31T16:57:59;15.70;69.80
10644;DHT22;5370;50.132;8.626;2022-12-31T17:00:26;15.70;69.80
10644;DHT22;5370;50.132;8.626;2022-12-31T17:05:31;15.60;69.70
10644;DHT22;5370;50.132;8.626;2022-12-31T17:08:18;15.60;69.70
10644;DHT22;5370;50.132;8.626;2022-12-31T17:10:46;15.50;69.70
10644;DHT22;5370;50.132;8.626;2022-12-31T17:13:23;15.50;69.70
10644;DHT22;5370;50.132;8.626;2022-12-31T17:15:50;15.40;69.80
10644;DHT22;5370;50.132;8.626;2022-12-31T17:18:35;15.40;69.80
10644;DHT22;5370;50.132;8.626;2022-12-31T17:21:07;15.30;69.90
10644;DHT22;5370;50.132;8.626;2022-12-31T17:23:34;15.30;70.00
10644;DHT22;5370;50.132;8.626;2022-12-31T17:26:13;15.30;70.00
10644;DHT22;5370;50.132;8.626;2022-12-31T17:28:48;15.20;70.10
10644;DHT22;5370;50.132;8.626;2022-12-31T17:36:30;15.10;70.20
10644;DHT22;5370;50.132;8.626;2022-12-31T17:39:19;15.00;70.20
10644;DHT22;5370;50.132;8.626;2022-12-31T17:41:46;15.00;70.40
10644;DHT22;5370;50.132;8.626;2022-12-31T17:44:17;14.90;70.30
10644;DHT22;5370;50.132;8.626;2022-12-31T17:46:44;14.90;70.50
10644;DHT22;5370;50.132;8.626;2022-12-31T17:49:11;14.80;70.40
10644;DHT22;5370;50.132;8.626;2022-12-31T17:51:38;14.80;70.60
10644;DHT22;5370;50.132;8.626;2022-12-31T17:54:16;14.80;70.60
10644;DHT22;5370;50.132;8.626;2022-12-31T17:56:43;14.80;70.60
10644;DHT22;5370;50.132;8.626;2022-12-31T17:59:23;14.80;70.70
10644;DHT22;5370;50.132;8.626;2022-12-31T18:01:49;14.80;70.70
10644;DHT22;5370;50.132;8.626;2022-12-31T18:04:17;14.80;70.60
10644;DHT22;5370;50.132;8.626;2022-12-31T18:06:43;14.80;70.70
10644;DHT22;5370;50.132;8.626;2022-12-31T18:09:09;14.80;70.90
10644;DHT22;5370;50.132;8.626;2022-12-31T18:11:37;14.80;70.80
10644;DHT22;5370;50.132;8.626;2022-12-31T18:14:02;14.80;70.90
10644;DHT22;5370;50.132;8.626;2022-12-31T18:16:28;14.70;70.70
10644;DHT22;5370;50.132;8.626;2022-12-31T18:18:58;14.70;70.80
10644;DHT22;5370;50.132;8.626;2022-12-31T18:21:32;14.70;70.80
10644;DHT22;5370;50.132;8.626;2022-12-31T18:24:00;14.70;70.90
10644;DHT22;5370;50.132;8.626;2022-12-31T18:26:26;14.60;70.80
10644;DHT22;5370;50.132;8.626;2022-12-31T18:28:52;14.60;70.90
10644;DHT22;5370;50.132;8.626;2022-12-31T18:31:23;14.60;71.00
10644;DHT22;5370;50.132;8.626;2022-12-31T18:33:50;14.60;71.00
10644;DHT22;5370;50.132;8.626;2022-12-31T18:36:17;14.50;71.00
10644;DHT22;5370;50.132;8.626;2022-12-31T18:38:43;14.50;71.00
10644;DHT22;5370;50.132;8.626;2022-12-31T18:41:19;14.50;70.90
10644;DHT22;5370;50.132;8.626;2022-12-31T18:43:46;14.50;70.90
10644;DHT22;5370;50.132;8.626;2022-12-31T18:46:13;14.60;70.80
10644;DHT22;5370;50.132;8.626;2022-12-31T18:48:39;14.60;70.70
10644;DHT22;5370;50.132;8.626;2022-12-31T18:51:09;14.60;70.50
10644;DHT22;5370;50.132;8.626;2022-12-31T18:53:36;14.70;70.40
10644;DHT22;5370;50.132;8.626;2022-12-31T18:56:02;14.70;70.30
10644;DHT22;5370;50.132;8.626;2022-12-31T18:58:27;14.70;70.20
10644;DHT22;5370;50.132;8.626;2022-12-31T19:00:53;14.70;70.00
10644;DHT22;5370;50.132;8.626;2022-12-31T19:03:21;14.70;69.90
10644;DHT22;5370;50.132;8.626;2022-12-31T19:05:48;14.70;69.80
10644;DHT22;5370;50.132;8.626;2022-12-31T19:08:19;14.70;69.60
10644;DHT22;5370;50.132;8.626;2022-12-31T19:10:45;14.70;69.50
10644;DHT22;5370;50.132;8.626;2022-12-31T19:13:13;14.70;69.40
10644;DHT22;5370;50.132;8.626;2022-12-31T19:15:42;14.70;69.20
10644;DHT22;5370;50.132;8.626;2022-12-31T19:18:08;14.70;69.10
10644;DHT22;5370;50.132;8.626;2022-12-31T19:20:34;14.70;69.00
10644;DHT22;5370;50.132;8.626;2022-12-31T19:23:00;14.70;69.00
10644;DHT22;5370;50.132;8.626;2022-12-31T19:25:34;14.70;69.00
10644;DHT22;5370;50.132;8.626;2022-12-31T19:28:01;14.70;68.90
10644;DHT22;5370;50.132;8.626;2022-12-31T19:30:30;14.60;68.80
10644;DHT22;5370;50.132;8.626;2022-12-31T19:32:56;14.60;68.80
10644;DHT22;5370;50.132;8.626;2022-12-31T19:35:23;14.50;68.80
10644;DHT22;5370;50.132;8.626;2022-12-31T19:37:50;14.50;68.80
10644;DHT22;5370;50.132;8.626;2022-12-31T19:40:24;14.50;68.80
10644;DHT22;5370;50.132;8.626;2022-12-31T19:42:51;14.50;68.90
10644;DHT22;5370;50.132;8.626;2022-12-31T19:45:22;14.40;68.80
10644;DHT22;5370;50.132;8.626;2022-12-31T19:47:48;14.40;68.70
10644;DHT22;5370;50.132;8.626;2022-12-31T19:50:16;14.40;68.70
10644;DHT22;5370;50.132;8.626;2022-12-31T19:52:44;14.40;68.70
10644;DHT22;5370;50.132;8.626;2022-12-31T19:55:12;14.30;68.60